createdAt,value
2019-05-20T00:02:23.162Z,90.40
2019-05-20T00:04:38.260Z,90.70
2019-05-20T00:07:06.515Z,90.50
2019-05-20T00:09:34.792Z,89.90
2019-05-20T00:12:03.045Z,89.20
2019-05-20T00:14:31.333Z,89.40
2019-05-20T00:16:59.593Z,89.50
2019-05-20T00:19:27.856Z,89.50
2019-05-20T00:21:56.117Z,89.40
2019-05-20T00:24:24.374Z,89.30
2019-05-20T00:26:52.632Z,90.10
2019-05-20T00:29:20.891Z,90.10
2019-05-20T00:31:49.158Z,90.50
2019-05-20T00:34:17.413Z,90.40
2019-05-20T00:36:45.697Z,90.50
2019-05-20T00:39:20.513Z,91.10
2019-05-20T00:41:48.846Z,91.70
2019-05-20T00:44:17.532Z,92.80
2019-05-20T00:46:45.795Z,93.70
2019-05-20T00:49:14.068Z,93.70
2019-05-20T00:51:42.336Z,94.00
2019-05-20T00:54:10.581Z,94.60
2019-05-20T00:56:38.866Z,94.50
2019-05-20T00:59:07.109Z,94.70
2019-05-20T01:01:35.370Z,94.50
2019-05-20T01:04:03.639Z,94.40
2019-05-20T01:06:31.901Z,94.20
2019-05-20T01:09:00.166Z,94.30
2019-05-20T01:11:28.433Z,94.50
2019-05-20T01:13:56.696Z,94.60
2019-05-20T01:16:24.940Z,94.70
2019-05-20T01:18:53.193Z,95.50
2019-05-20T01:21:21.469Z,95.70
2019-05-20T01:23:49.721Z,95.90
2019-05-20T01:26:17.985Z,95.70
2019-05-20T01:28:46.255Z,95.60
2019-05-20T01:31:14.588Z,95.60
2019-05-20T01:33:42.842Z,96.00
2019-05-20T01:36:11.113Z,96.60
2019-05-20T01:38:39.377Z,97.10
2019-05-20T01:41:07.641Z,97.40
2019-05-20T01:43:35.919Z,97.70
2019-05-20T01:46:04.245Z,97.60
2019-05-20T01:48:32.518Z,97.30
2019-05-20T01:51:00.812Z,97.90
2019-05-20T01:53:29.125Z,98.40
2019-05-20T01:55:57.389Z,98.30
2019-05-20T01:58:25.645Z,98.40
2019-05-20T02:00:53.937Z,98.70
2019-05-20T02:03:31.788Z,99.20
2019-05-20T02:05:52.232Z,99.20
2019-05-20T02:08:20.559Z,99.40
2019-05-20T02:10:48.820Z,99.00
2019-05-20T02:13:17.069Z,98.50
2019-05-20T02:15:58.932Z,98.70
2019-05-20T02:18:27.187Z,98.40
2019-05-20T02:20:55.447Z,99.50
2019-05-20T02:23:23.708Z,99.60
2019-05-20T02:25:52.051Z,99.90
2019-05-20T02:28:20.301Z,99.50
2019-05-20T02:30:48.565Z,99.90
2019-05-20T02:33:16.913Z,99.90
2019-05-20T02:35:45.229Z,99.90
2019-05-20T02:38:13.497Z,99.90
2019-05-20T02:40:41.744Z,99.90
2019-05-20T02:43:10.009Z,99.90
2019-05-20T02:45:38.261Z,99.90
2019-05-20T02:48:06.525Z,99.90
2019-05-20T02:50:34.777Z,99.90
2019-05-20T02:53:03.123Z,99.90
2019-05-20T02:55:31.378Z,99.90
2019-05-20T02:57:59.639Z,99.90
2019-05-20T03:00:27.886Z,99.90
2019-05-20T03:02:56.157Z,99.90
2019-05-20T03:05:24.401Z,99.90
2019-05-20T03:07:52.678Z,99.90
2019-05-20T03:10:20.937Z,99.90
2019-05-20T03:12:49.207Z,99.90
2019-05-20T03:15:17.732Z,99.90
2019-05-20T03:17:46.062Z,99.90
2019-05-20T03:20:14.320Z,99.90
2019-05-20T03:22:42.583Z,99.90
2019-05-20T03:25:10.829Z,99.90
2019-05-20T03:27:39.084Z,99.90
2019-05-20T03:30:08.004Z,99.90
2019-05-20T03:32:36.261Z,99.90
2019-05-20T03:35:06.627Z,99.90
2019-05-20T03:37:34.921Z,99.90
2019-05-20T03:40:04.555Z,99.90
2019-05-20T03:42:32.826Z,99.90
2019-05-20T03:45:01.080Z,99.70
2019-05-20T03:47:29.342Z,98.80
2019-05-20T03:49:57.664Z,98.10
2019-05-20T03:52:25.940Z,97.90
2019-05-20T03:54:54.263Z,98.00
2019-05-20T03:57:22.604Z,98.00
2019-05-20T03:59:50.918Z,97.70
2019-05-20T04:02:19.258Z,98.10
2019-05-20T04:05:01.238Z,97.80
2019-05-20T04:07:17.562Z,97.50
2019-05-20T04:09:45.809Z,97.70
2019-05-20T04:12:14.072Z,97.40
2019-05-20T04:14:42.318Z,97.10
2019-05-20T04:17:10.573Z,96.80
2019-05-20T04:19:38.821Z,96.70
2019-05-20T04:22:07.094Z,96.80
2019-05-20T04:24:35.406Z,96.60
2019-05-20T04:27:05.142Z,96.50
2019-05-20T04:29:33.402Z,96.50
2019-05-20T04:32:01.645Z,96.20
2019-05-20T04:34:29.914Z,96.50
2019-05-20T04:36:58.168Z,96.10
2019-05-20T04:39:26.419Z,95.80
2019-05-20T04:41:54.668Z,95.50
2019-05-20T04:44:22.920Z,95.20
2019-05-20T04:46:51.164Z,95.10
2019-05-20T04:49:19.424Z,95.00
2019-05-20T04:51:47.673Z,94.80
2019-05-20T04:54:15.939Z,94.40
2019-05-20T04:56:44.182Z,94.20
2019-05-20T04:59:12.445Z,93.50
2019-05-20T05:01:40.689Z,92.40
2019-05-20T05:04:08.950Z,90.70
2019-05-20T05:06:37.200Z,89.70
2019-05-20T05:09:06.792Z,88.40
2019-05-20T05:11:35.036Z,85.70
2019-05-20T05:14:03.301Z,85.00
2019-05-20T05:16:31.552Z,82.80
2019-05-20T05:18:59.801Z,80.00
2019-05-20T05:21:28.048Z,76.90
2019-05-20T05:23:59.379Z,73.40
2019-05-20T05:26:26.357Z,70.20
2019-05-20T05:28:54.608Z,68.80
2019-05-20T05:31:22.868Z,67.10
2019-05-20T05:33:54.256Z,66.60
2019-05-20T05:36:21.100Z,64.30
2019-05-20T05:38:49.361Z,63.20
2019-05-20T05:41:17.609Z,60.80
2019-05-20T05:43:45.871Z,59.00
2019-05-20T05:46:14.112Z,57.50
2019-05-20T05:48:42.369Z,56.40
2019-05-20T05:51:10.617Z,54.70
2019-05-20T05:53:38.885Z,52.90
2019-05-20T05:56:07.133Z,51.20
2019-05-20T05:58:35.396Z,49.40
2019-05-20T06:01:03.654Z,49.90
2019-05-20T06:03:31.906Z,49.60
2019-05-20T06:06:11.488Z,49.60
2019-05-20T06:08:30.135Z,53.10
2019-05-20T06:10:58.382Z,53.00
2019-05-20T06:13:26.641Z,53.00
2019-05-20T06:15:54.892Z,52.60
2019-05-20T06:18:23.164Z,51.40
2019-05-20T06:20:51.404Z,49.90
2019-05-20T06:23:19.671Z,51.60
2019-05-20T06:25:47.986Z,52.20
2019-05-20T06:28:16.234Z,50.80
2019-05-20T06:30:45.433Z,49.70
2019-05-20T06:33:13.683Z,50.90
2019-05-20T06:35:41.938Z,50.50
2019-05-20T06:38:14.729Z,48.80
2019-05-20T06:40:42.994Z,47.60
2019-05-20T06:43:11.245Z,47.10
2019-05-20T06:45:39.500Z,46.20
2019-05-20T06:48:07.753Z,45.80
2019-05-20T06:50:36.038Z,45.90
2019-05-20T06:53:04.281Z,45.80
2019-05-20T06:55:32.988Z,44.80
2019-05-20T06:58:01.273Z,43.90
2019-05-20T07:00:53.498Z,44.50
2019-05-20T07:03:21.753Z,43.80
2019-05-20T07:05:50.008Z,43.40
2019-05-20T07:08:18.281Z,43.40
2019-05-20T07:10:46.602Z,43.60
2019-05-20T07:13:16.253Z,43.30
2019-05-20T07:15:45.006Z,46.60
2019-05-20T07:18:13.328Z,46.80
2019-05-20T07:20:41.584Z,48.60
2019-05-20T07:23:09.842Z,50.80
2019-05-20T07:25:38.151Z,53.30
2019-05-20T07:28:06.429Z,52.60
2019-05-20T07:30:34.694Z,52.20
2019-05-20T07:33:02.936Z,52.70
2019-05-20T07:35:31.495Z,53.10
2019-05-20T07:37:59.912Z,53.40
2019-05-20T07:40:32.026Z,53.20
2019-05-20T07:43:21.376Z,51.10
2019-05-20T07:45:49.632Z,50.80
2019-05-20T07:48:17.895Z,52.50
2019-05-20T07:50:46.230Z,53.50
2019-05-20T07:53:14.477Z,51.70
2019-05-20T07:55:58.116Z,51.20
2019-05-20T07:58:26.833Z,52.00
2019-05-20T08:00:55.183Z,53.70
2019-05-20T08:03:23.443Z,55.90
2019-05-20T08:05:51.705Z,55.40
2019-05-20T08:08:19.952Z,55.70
2019-05-20T08:10:48.281Z,55.70
2019-05-20T08:13:16.533Z,55.00
2019-05-20T08:15:44.793Z,53.40
2019-05-20T08:18:13.040Z,53.50
2019-05-20T08:20:41.301Z,55.00
2019-05-20T08:23:09.566Z,56.80
2019-05-20T08:25:37.908Z,58.50
2019-05-20T08:28:06.163Z,59.00
2019-05-20T08:30:38.472Z,59.40
2019-05-20T08:33:06.721Z,56.70
2019-05-20T08:35:34.982Z,56.90
2019-05-20T08:38:03.230Z,56.40
2019-05-20T08:40:31.491Z,56.10
2019-05-20T08:42:59.748Z,57.40
2019-05-20T08:45:28.013Z,57.90
2019-05-20T08:47:56.264Z,59.30
2019-05-20T08:50:24.520Z,59.90
2019-05-20T08:52:52.765Z,61.20
2019-05-20T08:55:21.034Z,59.60
2019-05-20T08:57:49.295Z,58.70
2019-05-20T09:00:24.059Z,56.90
2019-05-20T09:02:52.453Z,57.00
2019-05-20T09:05:20.697Z,57.30
2019-05-20T09:08:02.123Z,56.50
2019-05-20T09:10:18.934Z,56.70
2019-05-20T09:12:47.195Z,57.50
2019-05-20T09:15:17.016Z,57.40
2019-05-20T09:17:45.282Z,57.20
2019-05-20T09:20:13.619Z,55.60
2019-05-20T09:22:41.964Z,56.60
2019-05-20T09:25:10.566Z,56.20
2019-05-20T09:27:39.064Z,56.30
2019-05-20T09:30:07.486Z,57.20
2019-05-20T09:32:36.222Z,56.70
2019-05-20T09:35:06.728Z,56.70
2019-05-20T09:37:35.049Z,55.60
2019-05-20T09:40:03.378Z,57.60
2019-05-20T09:42:31.659Z,57.70
2019-05-20T09:45:03.140Z,58.30
2019-05-20T09:47:29.977Z,58.00
2019-05-20T09:49:58.227Z,57.40
2019-05-20T09:52:26.556Z,58.50
2019-05-20T09:54:54.808Z,57.90
2019-05-20T09:57:24.707Z,57.70
2019-05-20T09:59:53.032Z,58.70
2019-05-20T10:02:21.305Z,58.10
2019-05-20T10:04:49.561Z,58.00
2019-05-20T10:07:17.814Z,57.80
2019-05-20T10:09:46.064Z,56.80
2019-05-20T10:12:14.412Z,56.80
2019-05-20T10:14:42.733Z,56.50
2019-05-20T10:17:11.034Z,56.80
2019-05-20T10:19:39.325Z,57.80
2019-05-20T10:22:07.617Z,57.60
2019-05-20T10:24:35.874Z,58.50
2019-05-20T10:27:04.133Z,58.10
2019-05-20T10:29:32.556Z,58.90
2019-05-20T10:32:00.829Z,59.70
2019-05-20T10:34:29.139Z,60.70
2019-05-20T10:36:57.425Z,60.20
2019-05-20T10:39:25.720Z,60.00
2019-05-20T10:41:53.980Z,58.90
2019-05-20T10:44:22.236Z,58.40
2019-05-20T10:46:50.502Z,59.90
2019-05-20T10:49:18.816Z,59.10
2019-05-20T10:51:47.081Z,58.30
2019-05-20T10:54:15.329Z,57.70
2019-05-20T10:56:43.582Z,58.90
2019-05-20T10:59:12.422Z,58.30
2019-05-20T11:01:41.065Z,59.40
2019-05-20T11:04:09.324Z,59.80
2019-05-20T11:06:37.573Z,59.30
2019-05-20T11:09:13.930Z,59.50
2019-05-20T11:11:39.354Z,59.40
2019-05-20T11:14:06.253Z,58.20
2019-05-20T11:16:34.509Z,57.40
2019-05-20T11:19:02.891Z,57.90
2019-05-20T11:21:31.117Z,58.90
2019-05-20T11:23:59.370Z,57.90
2019-05-20T11:26:27.617Z,58.10
2019-05-20T11:28:55.880Z,57.60
2019-05-20T11:31:24.133Z,56.90
2019-05-20T11:33:52.391Z,55.80
2019-05-20T11:36:20.636Z,57.30
2019-05-20T11:38:48.900Z,57.20
2019-05-20T11:41:17.152Z,57.80
2019-05-20T11:43:45.412Z,59.60
2019-05-20T11:46:14.133Z,60.90
2019-05-20T11:48:42.395Z,62.20
2019-05-20T11:51:10.640Z,62.50
2019-05-20T11:53:38.900Z,62.30
2019-05-20T11:56:07.149Z,62.10
2019-05-20T11:58:35.408Z,62.30
2019-05-20T12:01:03.657Z,62.10
2019-05-20T12:03:31.914Z,61.80
2019-05-20T12:06:00.179Z,61.40
2019-05-20T12:08:28.512Z,61.80
2019-05-20T12:10:56.831Z,61.40
2019-05-20T12:13:25.164Z,61.50
2019-05-20T12:15:53.414Z,62.40
2019-05-20T12:18:21.688Z,64.70
2019-05-20T12:20:50.012Z,64.40
2019-05-20T12:23:18.323Z,65.20
2019-05-20T12:25:46.652Z,66.90
2019-05-20T12:28:14.947Z,67.90
2019-05-20T12:30:43.239Z,69.20
2019-05-20T12:33:19.709Z,68.20
2019-05-20T12:35:41.544Z,69.10
2019-05-20T12:38:09.821Z,68.90
2019-05-20T12:40:38.056Z,68.70
2019-05-20T12:43:06.317Z,67.40
2019-05-20T12:45:34.572Z,67.60
2019-05-20T12:48:02.825Z,68.70
2019-05-20T12:50:31.068Z,69.10
2019-05-20T12:52:59.340Z,70.30
2019-05-20T12:55:27.588Z,72.10
2019-05-20T12:57:55.837Z,71.30
2019-05-20T13:00:24.176Z,70.60
2019-05-20T13:02:52.433Z,71.40
2019-05-20T13:05:20.693Z,70.80
2019-05-20T13:07:48.941Z,71.90
2019-05-20T13:10:29.256Z,72.90
2019-05-20T13:12:47.255Z,71.90
2019-05-20T13:15:15.522Z,72.60
2019-05-20T13:17:45.190Z,73.90
2019-05-20T13:20:13.986Z,75.00
2019-05-20T13:22:42.231Z,75.60
2019-05-20T13:25:11.057Z,78.30
2019-05-20T13:27:39.300Z,78.00
2019-05-20T13:30:07.833Z,77.50
2019-05-20T13:32:36.084Z,79.90
2019-05-20T13:35:06.187Z,84.10
2019-05-20T13:37:34.445Z,83.40
2019-05-20T13:40:03.526Z,84.20
2019-05-20T13:42:32.109Z,84.70
2019-05-20T13:45:00.368Z,84.50
2019-05-20T13:47:28.638Z,86.00
2019-05-20T13:49:56.898Z,87.10
2019-05-20T13:52:25.153Z,87.60
2019-05-20T13:54:53.408Z,87.60
2019-05-20T13:57:21.669Z,87.60
2019-05-20T13:59:49.937Z,88.30
2019-05-20T14:02:18.206Z,89.90
2019-05-20T14:04:46.528Z,89.50
2019-05-20T14:07:14.774Z,91.50
2019-05-20T14:09:43.149Z,90.00
2019-05-20T14:12:11.767Z,90.50
2019-05-20T14:14:40.027Z,87.70
2019-05-20T14:17:08.276Z,88.80
2019-05-20T14:19:36.537Z,86.20
2019-05-20T14:22:04.786Z,86.20
2019-05-20T14:24:33.045Z,85.20
2019-05-20T14:27:01.303Z,86.20
2019-05-20T14:29:29.554Z,85.20
2019-05-20T14:31:57.820Z,86.60
2019-05-20T14:34:26.077Z,87.20
2019-05-20T14:36:54.333Z,88.30
2019-05-20T14:39:22.599Z,87.90
2019-05-20T14:41:50.847Z,87.90
2019-05-20T14:44:19.101Z,87.90
2019-05-20T14:46:47.350Z,87.80
2019-05-20T14:49:15.605Z,85.00
2019-05-20T14:51:43.864Z,85.10
2019-05-20T14:54:12.192Z,84.60
2019-05-20T14:56:40.440Z,85.00
2019-05-20T14:59:08.729Z,83.50
2019-05-20T15:01:37.051Z,84.20
2019-05-20T15:04:05.305Z,83.20
2019-05-20T15:06:33.575Z,83.50
2019-05-20T15:09:01.924Z,81.50
2019-05-20T15:11:38.272Z,81.60
2019-05-20T15:14:00.672Z,82.30
2019-05-20T15:16:29.261Z,81.50
2019-05-20T15:18:57.514Z,80.40
2019-05-20T15:21:28.999Z,81.10
2019-05-20T15:23:55.741Z,80.80
2019-05-20T15:26:24.068Z,82.30
2019-05-20T15:28:52.335Z,82.70
2019-05-20T15:31:20.676Z,82.80
2019-05-20T15:33:48.925Z,82.80
2019-05-20T15:36:17.255Z,83.30
2019-05-20T15:38:45.778Z,85.00
2019-05-20T15:41:14.041Z,84.20
2019-05-20T15:43:42.288Z,85.00
2019-05-20T15:46:10.545Z,85.20
2019-05-20T15:48:38.811Z,85.60
2019-05-20T15:51:07.139Z,85.00
2019-05-20T15:53:35.384Z,85.80
2019-05-20T15:56:03.720Z,85.80
2019-05-20T15:58:31.981Z,86.40
2019-05-20T16:01:00.244Z,85.90
2019-05-20T16:03:28.488Z,86.00
2019-05-20T16:05:59.713Z,86.10
2019-05-20T16:08:26.713Z,86.30
2019-05-20T16:10:54.982Z,86.70
2019-05-20T16:13:23.237Z,87.50
2019-05-20T16:15:51.492Z,87.10
2019-05-20T16:18:19.765Z,86.90
2019-05-20T16:20:48.018Z,87.70
2019-05-20T16:23:16.269Z,87.10
2019-05-20T16:25:45.355Z,87.60
2019-05-20T16:28:13.599Z,88.20
2019-05-20T16:30:42.225Z,87.70
2019-05-20T16:33:10.492Z,88.60
2019-05-20T16:35:38.814Z,88.80
2019-05-20T16:38:07.058Z,89.30
2019-05-20T16:40:35.323Z,90.40
2019-05-20T16:43:03.564Z,91.40
2019-05-20T16:45:31.824Z,91.80
2019-05-20T16:48:00.069Z,92.90
2019-05-20T16:50:28.328Z,93.70
2019-05-20T16:52:56.592Z,94.60
2019-05-20T16:55:24.841Z,95.20
2019-05-20T16:57:53.100Z,96.30
2019-05-20T17:00:31.383Z,97.20
2019-05-20T17:02:51.336Z,97.90
2019-05-20T17:05:19.600Z,98.20
2019-05-20T17:07:47.860Z,99.80
2019-05-20T17:10:16.208Z,99.90
2019-05-20T17:12:44.468Z,99.90
2019-05-20T17:15:12.721Z,99.90
2019-05-20T17:17:40.984Z,99.90
2019-05-20T17:20:09.722Z,99.90
2019-05-20T17:22:38.049Z,99.90
2019-05-20T17:25:07.070Z,99.90
2019-05-20T17:27:35.499Z,99.90
2019-05-20T17:30:06.171Z,99.90
2019-05-20T17:32:34.461Z,99.90
2019-05-20T17:35:02.777Z,99.90
2019-05-20T17:37:31.066Z,99.90
2019-05-20T17:39:59.388Z,99.90
2019-05-20T17:42:27.637Z,99.90
2019-05-20T17:44:55.895Z,99.90
2019-05-20T17:47:24.146Z,99.90
2019-05-20T17:49:52.512Z,99.90
2019-05-20T17:52:20.764Z,99.90
2019-05-20T17:54:49.067Z,99.90
2019-05-20T17:57:21.561Z,99.90
2019-05-20T17:59:49.804Z,99.90
2019-05-20T18:02:18.153Z,99.90
2019-05-20T18:04:46.585Z,99.90
2019-05-20T18:07:14.878Z,99.90
2019-05-20T18:09:47.497Z,99.90
2019-05-20T18:12:15.780Z,99.90
2019-05-20T18:14:45.668Z,99.90
2019-05-20T18:17:13.924Z,99.90
2019-05-20T18:19:42.176Z,99.90
2019-05-20T18:22:10.432Z,99.90
2019-05-20T18:24:38.673Z,99.90
2019-05-20T18:27:06.952Z,99.90
2019-05-20T18:29:35.205Z,99.90
2019-05-20T18:32:03.464Z,99.90
2019-05-20T18:34:31.767Z,99.90
2019-05-20T18:37:00.132Z,99.90
2019-05-20T18:39:28.420Z,99.90
2019-05-20T18:41:58.341Z,99.90
2019-05-20T18:44:26.846Z,99.90
2019-05-20T18:46:55.184Z,99.90
2019-05-20T18:49:25.089Z,99.90
2019-05-20T18:51:53.781Z,99.90
2019-05-20T18:54:25.332Z,99.90
2019-05-20T18:56:54.016Z,99.90
2019-05-20T18:59:22.264Z,99.90
2019-05-20T19:02:03.856Z,99.90
2019-05-20T19:04:21.130Z,99.90
2019-05-20T19:06:49.608Z,99.90
2019-05-20T19:09:18.508Z,99.90
2019-05-20T19:11:46.772Z,99.90
2019-05-20T19:14:15.052Z,99.90
2019-05-20T19:16:43.469Z,99.90
2019-05-20T19:19:11.741Z,99.90
2019-05-20T19:21:39.978Z,99.90
2019-05-20T19:24:08.232Z,99.90
2019-05-20T19:26:36.478Z,99.90
2019-05-20T19:29:04.747Z,99.90
2019-05-20T19:31:33.063Z,99.90
2019-05-20T19:34:01.339Z,99.90
2019-05-20T19:36:29.581Z,99.90
2019-05-20T19:38:57.870Z,99.90
2019-05-20T19:41:26.168Z,99.90
2019-05-20T19:43:54.426Z,99.90
2019-05-20T19:46:22.744Z,99.90
2019-05-20T19:48:51.000Z,99.90
2019-05-20T19:51:19.327Z,99.90
2019-05-20T19:53:47.589Z,99.90
2019-05-20T19:56:15.848Z,99.90
2019-05-20T19:58:44.105Z,99.90
2019-05-20T20:01:12.375Z,99.90
2019-05-20T20:03:40.694Z,99.90
2019-05-20T20:06:08.956Z,99.90
2019-05-20T20:08:37.225Z,99.90
2019-05-20T20:11:05.488Z,99.90
2019-05-20T20:13:34.610Z,99.90
2019-05-20T20:16:03.076Z,99.90
2019-05-20T20:18:31.371Z,99.90
2019-05-20T20:20:59.643Z,99.90
2019-05-20T20:23:27.896Z,99.90
2019-05-20T20:25:56.144Z,99.90
2019-05-20T20:28:24.408Z,99.90
2019-05-20T20:30:52.660Z,99.90
2019-05-20T20:33:20.916Z,99.90
2019-05-20T20:35:49.186Z,99.90
2019-05-20T20:38:17.477Z,99.90
2019-05-20T20:40:45.724Z,99.90
2019-05-20T20:43:13.987Z,99.90
2019-05-20T20:45:42.248Z,99.90
2019-05-20T20:48:10.496Z,99.90
2019-05-20T20:50:38.740Z,99.90
2019-05-20T20:53:07.016Z,99.90
2019-05-20T20:55:35.533Z,99.90
2019-05-20T20:58:03.793Z,99.90
2019-05-20T21:00:32.044Z,99.90
2019-05-20T21:03:00.304Z,99.90
2019-05-20T21:05:28.546Z,99.90
2019-05-20T21:07:56.802Z,99.90
2019-05-20T21:10:25.052Z,99.90
2019-05-20T21:12:53.357Z,99.90
2019-05-20T21:15:21.628Z,99.90
2019-05-20T21:17:49.876Z,99.90
2019-05-20T21:20:18.130Z,99.90
2019-05-20T21:22:46.376Z,99.90
2019-05-20T21:25:14.647Z,99.90
2019-05-20T21:27:42.956Z,99.90
2019-05-20T21:30:11.214Z,99.90
2019-05-20T21:32:39.457Z,99.90
2019-05-20T21:35:07.712Z,99.90
2019-05-20T21:37:35.964Z,99.90
2019-05-20T21:40:04.760Z,99.90
2019-05-20T21:42:33.020Z,99.90
2019-05-20T21:45:01.280Z,99.90
2019-05-20T21:47:29.588Z,99.90
2019-05-20T21:49:57.849Z,99.90
2019-05-20T21:52:26.098Z,99.90
2019-05-20T21:54:54.351Z,99.90
2019-05-20T21:57:22.596Z,99.90
2019-05-20T21:59:50.862Z,99.90
2019-05-20T22:02:19.104Z,99.90
2019-05-20T22:04:47.362Z,99.90
2019-05-20T22:07:15.636Z,99.90
2019-05-20T22:09:43.954Z,99.90
2019-05-20T22:12:12.198Z,99.90
2019-05-20T22:14:40.444Z,99.90
2019-05-20T22:17:08.696Z,99.90
2019-05-20T22:19:36.965Z,99.90
2019-05-20T22:22:12.810Z,99.90
2019-05-20T22:24:41.069Z,99.90
2019-05-20T22:27:09.313Z,99.90
2019-05-20T22:29:37.673Z,99.90
2019-05-20T22:32:05.918Z,99.90
2019-05-20T22:34:34.182Z,99.90
2019-05-20T22:37:02.428Z,99.90
2019-05-20T22:39:30.688Z,99.90
2019-05-20T22:41:58.933Z,99.90
2019-05-20T22:44:27.192Z,99.90
2019-05-20T22:46:55.441Z,99.90
2019-05-20T22:49:23.713Z,99.90
2019-05-20T22:51:51.956Z,99.90
2019-05-20T22:54:20.208Z,99.90
2019-05-20T22:56:48.463Z,99.90
2019-05-20T22:59:16.715Z,99.90
2019-05-20T23:01:44.966Z,99.90
2019-05-20T23:04:13.213Z,99.90
2019-05-20T23:06:41.471Z,99.90
2019-05-20T23:09:10.978Z,99.90
2019-05-20T23:11:39.541Z,99.90
2019-05-20T23:14:07.788Z,99.90
2019-05-20T23:16:36.052Z,99.90
2019-05-20T23:19:04.299Z,99.90
2019-05-20T23:21:32.565Z,99.90
2019-05-20T23:24:02.922Z,99.90
2019-05-20T23:26:31.184Z,99.90
2019-05-20T23:28:59.465Z,99.90
2019-05-20T23:31:27.725Z,99.90
2019-05-20T23:34:10.363Z,99.90
2019-05-20T23:36:25.978Z,99.90
2019-05-20T23:38:54.287Z,99.90
2019-05-20T23:41:22.544Z,99.90
2019-05-20T23:43:50.817Z,99.90
2019-05-20T23:46:19.070Z,99.90
2019-05-20T23:48:47.309Z,99.90
2019-05-20T23:51:15.569Z,99.90
2019-05-20T23:53:43.821Z,99.90
2019-05-20T23:56:12.077Z,99.90
2019-05-20T23:58:40.328Z,99.90
